^^
Datos históricos de la estación: Murcia-Puente Tocinos
Diario Informe para Septiembre 7, 2019 Unidades:  Ingés    Métrico   Ambas
Diario Semanal Mensual Anual
  Máxima: Mínima: Promedio:
Temperatura: 89.4 °F 66 °F 74.8 °F
Punto de rocio: 67.5 °F 47.5 °F 60.3 °F
Humedad: 87% 25% 65%
Velocidad viento: 13mph 1.8mph 5.9mph
Racha viento: 23mph - -
Viento- - SSE
Presión: 30 in 29.9 in -
Precipitación: 0 in    
 
 
Tabla de datos para Septiembre 7, 2019
Hora Temperatura Punto de rocio Presión Viento Velocidad viento Racha viento Humedad Intensidad lluvia(por hora) Nubes
00:04 71.4 °F 67.3 °F 30 in OSO 1.8 mph 5 mph 87% 0 in
00:09 71.4 °F 67.3 °F 30 in SO 1.9 mph 5 mph 87% 0 in
00:14 71.6 °F 67.5 °F 30 in Sur 2.4 mph 5.2 mph 87% 0 in
00:19 71.6 °F 67.3 °F 30 in Sur 2.5 mph 7.4 mph 86.5% 0 in
00:24 71.4 °F 67.1 °F 30 in Sur 3.6 mph 7 mph 86% 0 in
00:29 71.4 °F 66.9 °F 30 in Sur 3.7 mph 7 mph 86% 0 in
00:34 71.2 °F 66.9 °F 30 in Sur 4.3 mph 7 mph 86% 0 in
00:39 71.2 °F 66.7 °F 30 in Sur 4.3 mph 6.9 mph 86% 0 in
00:44 71.1 °F 66.7 °F 30 in SSO 4.7 mph 8.1 mph 86% 0 in
00:49 71.1 °F 66.7 °F 30 in SSO 4.8 mph 8.1 mph 86% 0 in
00:54 71.1 °F 66.7 °F 30 in SSO 5.2 mph 8 mph 86% 0 in
00:59 71.1 °F 66.7 °F 30 in SO 4.9 mph 7 mph 86% 0 in
01:04 71.1 °F 66.7 °F 30 in SO 3.6 mph 6.2 mph 86% 0 in
01:09 71.1 °F 66.7 °F 30 in SO 3.7 mph 7.4 mph 86% 0 in
01:14 71.1 °F 66.7 °F 30 in SO 4.3 mph 7 mph 86% 0 in
01:19 71.1 °F 66.7 °F 30 in SO 4.3 mph 7.4 mph 86% 0 in
01:24 71.2 °F 66.7 °F 30 in SO 4.7 mph 7 mph 86% 0 in
01:29 71.2 °F 66.7 °F 30 in SO 4.7 mph 7.4 mph 86% 0 in
01:34 71.1 °F 66.4 °F 30 in OSO 4.7 mph 8.1 mph 85.1% 0 in
01:39 71.1 °F 66.4 °F 30 in OSO 4.7 mph 8.1 mph 85% 0 in
01:44 70.9 °F 66 °F 30 in OSO 4.7 mph 8.5 mph 85% 0 in
01:49 70.7 °F 66 °F 30 in Oeste 4.7 mph 9 mph 85% 0 in
01:54 70.3 °F 65.7 °F 30 in OSO 4.3 mph 6.9 mph 85.1% 0 in
01:59 70.3 °F 66 °F 30 in OSO 4.2 mph 7 mph 86% 0 in
02:04 70.3 °F 66 °F 30 in OSO 3.6 mph 5.8 mph 86% 0 in
02:09 70.3 °F 66 °F 30 in OSO 3.5 mph 6 mph 86% 0 in
02:14 70.3 °F 66 °F 30 in SO 3.1 mph 6 mph 86% 0 in
02:19 70.3 °F 66 °F 30 in SO 3 mph 5 mph 86% 0 in
02:24 70.3 °F 66 °F 30 in SO 2.4 mph 6.2 mph 86% 0 in
02:29 70.3 °F 66 °F 30 in SO 2.7 mph 6 mph 86% 0 in
02:34 70.3 °F 66 °F 30 in SO 4 mph 6 mph 86% 0 in
02:39 70.5 °F 66 °F 30 in SO 3.9 mph 6 mph 86% 0 in
02:44 70.5 °F 66 °F 30 in SO 3.6 mph 5.2 mph 86% 0 in
02:49 70.5 °F 66 °F 30 in OSO 3.5 mph 5 mph 85.7% 0 in
02:54 70.3 °F 65.7 °F 30 in Sur 2.9 mph 5 mph 85% 0 in
02:59 70.2 °F 65.8 °F 30 in SSO 3 mph 5.8 mph 85.9% 0 in
03:04 70.2 °F 65.8 °F 30 in SSO 3.6 mph 6 mph 86% 0 in
03:09 70 °F 65.7 °F 30 in SSO 3.7 mph 6 mph 86% 0 in
03:14 70 °F 65.5 °F 30 in SSO 4 mph 6.2 mph 86% 0 in
03:19 69.8 °F 65.3 °F 30 in SO 4 mph 6 mph 86% 0 in
03:24 69.6 °F 65.3 °F 30 in SO 4 mph 6.2 mph 86% 0 in
03:29 69.6 °F 65.1 °F 30 in SO 4 mph 6.2 mph 86% 0 in
03:34 69.4 °F 65.1 °F 30 in SSO 4 mph 9.2 mph 86% 0 in
03:39 69.4 °F 65.1 °F 30 in SO 4.1 mph 9 mph 86% 0 in
03:44 69.3 °F 64.9 °F 30 in SO 4.7 mph 7 mph 86% 0 in
03:49 69.3 °F 64.9 °F 30 in OSO 4.5 mph 6 mph 86% 0 in
03:54 69.1 °F 64.8 °F 29.9 in SO 3.6 mph 5 mph 86% 0 in
03:59 69.1 °F 64.9 °F 29.9 in SO 3.5 mph 5.9 mph 86.9% 0 in
04:04 69.1 °F 64.9 °F 29.9 in SO 3.1 mph 6 mph 87% 0 in
04:09 68.9 °F 64.9 °F 29.9 in SSO 3.2 mph 6.2 mph 87% 0 in
04:14 68.7 °F 64.4 °F 29.9 in SO 3.6 mph 6.2 mph 86.1% 0 in
04:19 68.7 °F 64.4 °F 29.9 in SO 3.7 mph 7.4 mph 86% 0 in
04:24 68.7 °F 64 °F 29.9 in SO 4 mph 8.5 mph 85.3% 0 in
04:29 68.5 °F 63.9 °F 29.9 in SSO 4.1 mph 9 mph 85% 0 in
04:34 68.5 °F 63.9 °F 29.9 in SO 4.7 mph 9 mph 85% 0 in
04:39 68.5 °F 63.9 °F 29.9 in SO 4.6 mph 8.1 mph 85% 0 in
04:44 68.5 °F 63.5 °F 29.9 in SO 4 mph 7 mph 84.1% 0 in
04:49 68.5 °F 63.5 °F 29.9 in SO 4 mph 7 mph 84% 0 in
04:54 68.5 °F 63.5 °F 29.9 in SSO 3.6 mph 5 mph 84% 0 in
04:59 68.5 °F 63.5 °F 29.9 in SO 3.4 mph 5 mph 84% 0 in
05:04 68.5 °F 63.5 °F 29.9 in Oeste 2.4 mph 5.9 mph 84% 0 in
05:09 68.4 °F 63.3 °F 29.9 in Oeste 2.5 mph 6 mph 84% 0 in
05:14 68.4 °F 63.3 °F 29.9 in OSO 2.9 mph 6.4 mph 84% 0 in
05:19 67.8 °F 63 °F 29.9 in OSO 3 mph 7.4 mph 84% 0 in
05:24 67.6 °F 62.6 °F 29.9 in SO 3.6 mph 9.2 mph 84% 0 in
05:29 67.5 °F 62.4 °F 29.9 in SO 3.9 mph 9 mph 83.5% 0 in
05:34 67.5 °F 62.1 °F 29.9 in SO 5.2 mph 8 mph 83% 0 in
05:39 67.5 °F 62.1 °F 29.9 in SO 5 mph 6 mph 82.5% 0 in
05:44 67.6 °F 61.7 °F 29.9 in SO 3.6 mph 6.9 mph 81.5% 0 in
05:49 67.6 °F 61.5 °F 29.9 in SSO 3.7 mph 7 mph 80.9% 0 in
05:54 67.6 °F 61 °F 29.9 in SO 4.3 mph 7.4 mph 79.6% 0 in
05:59 67.6 °F 60.6 °F 29.9 in SO 4.5 mph 9.2 mph 78.4% 0 in
06:04 67.8 °F 60.6 °F 29.9 in SO 5.2 mph 9 mph 78% 0 in
06:09 67.8 °F 60.6 °F 29.9 in SO 5 mph 8 mph 78% 0 in
06:14 67.8 °F 60.6 °F 29.9 in SO 4.3 mph 6.9 mph 78% 0 in
06:19 67.8 °F 60.6 °F 29.9 in SO 4.2 mph 7 mph 78% 0 in
06:24 67.8 °F 60.6 °F 29.9 in OSO 3.6 mph 7 mph 78% 0 in
06:29 67.8 °F 60.6 °F 29.9 in SO 3.5 mph 5 mph 78% 0 in
06:34 67.6 °F 60.4 °F 29.9 in SSO 3.1 mph 5 mph 78% 0 in
06:39 67.6 °F 60.4 °F 29.9 in SSE 3.1 mph 7.4 mph 78% 0 in
06:44 67.3 °F 60.4 °F 29.9 in Sur 3.1 mph 7 mph 78.6% 0 in
06:49 66.9 °F 60.4 °F 29.9 in SO 3.3 mph 7.4 mph 79.9% 0 in
06:54 66.9 °F 60.6 °F 29.9 in SSO 4.3 mph 7.4 mph 80.2% 0 in
06:59 67.1 °F 60.8 °F 29.9 in SO 4.3 mph 9.7 mph 80% 0 in
07:04 67.3 °F 60.8 °F 29.9 in SO 4.3 mph 10 mph 79.9% 0 in
07:09 67.5 °F 60.6 °F 29.9 in SO 4.5 mph 10 mph 78.9% 0 in
07:14 67.5 °F 60.3 °F 29.9 in SO 5.2 mph 10.7 mph 77.4% 0 in
07:19 67.6 °F 59.9 °F 29.9 in SO 5 mph 11 mph 76.1% 0 in
07:24 67.6 °F 59.2 °F 29.9 in SO 4.3 mph 6 mph 74.4% 0 in
07:29 67.8 °F 59 °F 29.9 in SSO 4.2 mph 6.9 mph 73.6% 0 in
07:34 67.8 °F 59.4 °F 29.9 in SSE 3.6 mph 7 mph 74.4% 0 in
07:39 67.6 °F 59.7 °F 29.9 in Sur 3.7 mph 8.1 mph 76% 0 in
07:44 67.3 °F 59.7 °F 29.9 in Sur 4.3 mph 8.5 mph 77% 0 in
07:49 66.9 °F 59.5 °F 29.9 in Sur 4.4 mph 9.2 mph 77% 0 in
07:54 66.7 °F 59.4 °F 29.9 in Sur 5.2 mph 9 mph 77% 0 in
07:59 66.7 °F 59.4 °F 29.9 in Sur 4.7 mph 7 mph 77% 0 in
08:04 66.7 °F 59 °F 29.9 in ESE 2.9 mph 4.6 mph 76.1% 0 in
08:09 66.6 °F 58.8 °F 29.9 in ESE 2.9 mph 5.8 mph 76% 0 in
08:14 66.2 °F 58.5 °F 29.9 in SSE 3.1 mph 6 mph 76% 0 in
08:19 66 °F 58.3 °F 29.9 in SSE 3.2 mph 6 mph 76% 0 in
08:24 66 °F 57.7 °F 29.9 in SSO 3.6 mph 6.2 mph 74.6% 0 in
08:29 66.4 °F 57.6 °F 29.9 in SSO 3.7 mph 6.2 mph 72.9% 0 in
08:34 66.7 °F 57 °F 30 in SSO 4.3 mph 6.9 mph 71% 0 in
08:39 67.3 °F 56.8 °F 30 in SO 4.3 mph 7 mph 68.9% 0 in
08:44 67.8 °F 56.5 °F 30 in OSO 4.3 mph 7 mph 66.7% 0 in
08:49 68.4 °F 55.9 °F 30 in OSO 4.2 mph 6 mph 64.5% 0 in
08:54 68.9 °F 55 °F 30 in OSO 3.6 mph 6 mph 61.2% 0 in
08:59 69.4 °F 54.1 °F 30 in Oeste 3.4 mph 6 mph 58.2% 0 in
09:04 70.2 °F 54.9 °F 30 in Sur 2.9 mph 5.2 mph 58.6% 0 in
09:09 70.5 °F 57 °F 30 in SSE 2.9 mph 5.9 mph 62.6% 0 in
09:14 70.2 °F 55.8 °F 30 in Sur 3.1 mph 6.9 mph 60.4% 0 in
09:19 70.2 °F 55.4 °F 30 in Sur 3.4 mph 7.4 mph 59.6% 0 in
09:24 70.5 °F 55 °F 30 in Sur 4.7 mph 7 mph 58.3% 0 in
09:29 70.9 °F 54.7 °F 30 in SSO 4.7 mph 7 mph 56.7% 0 in
09:34 71.4 °F 54.1 °F 30 in Sur 4.3 mph 7 mph 54.6% 0 in
09:39 72 °F 54 °F 30 in Sur 4.3 mph 8.1 mph 53.3% 0 in
09:44 72.3 °F 53.8 °F 30 in Sur 4.7 mph 8.7 mph 52.1% 0 in
09:49 72.7 °F 53.2 °F 30 in SSO 4.8 mph 9.2 mph 50.6% 0 in
09:54 72.9 °F 52.9 °F 30 in SO 5.2 mph 9 mph 49.7% 0 in
09:59 73 °F 52.7 °F 30 in SO 5 mph 8.5 mph 49% 0 in
10:04 73.2 °F 52.9 °F 30 in SO 4.3 mph 9 mph 49.1% 0 in
10:09 73.4 °F 53.1 °F 30 in SO 4.5 mph 9 mph 49% 0 in
10:14 73.6 °F 53.4 °F 30 in SO 5.2 mph 8.1 mph 49.4% 0 in
10:19 73.9 °F 53.8 °F 30 in SO 5.1 mph 8.1 mph 49.3% 0 in
10:24 74.3 °F 53.4 °F 30 in SO 4.7 mph 8 mph 48.3% 0 in
10:29 75 °F 52 °F 30 in ONO 4.4 mph 7.4 mph 44.5% 0 in
10:34 76.1 °F 51.4 °F 30 in NO 3.1 mph 7 mph 42.1% 0 in
10:39 76.8 °F 51.1 °F 30 in Oeste 3.3 mph 10.4 mph 40.5% 0 in
10:44 77.5 °F 51.3 °F 30 in OSO 4.3 mph 11.5 mph 40% 0 in
10:49 78.1 °F 51.3 °F 30 in Oeste 4.7 mph 12 mph 39.3% 0 in
10:54 78.3 °F 50.9 °F 30 in Oeste 6.2 mph 13.8 mph 38.5% 0 in
10:59 78.6 °F 50.5 °F 30 in Oeste 6.5 mph 15 mph 37.5% 0 in
11:04 79 °F 50.2 °F 30 in Oeste 7.4 mph 16.3 mph 36.6% 0 in
11:09 79.2 °F 50 °F 30 in OSO 7.5 mph 16 mph 36% 0 in
11:14 79.3 °F 50.2 °F 30 in Oeste 8.1 mph 13 mph 36% 0 in
11:19 79.7 °F 50.4 °F 30 in OSO 7.8 mph 12 mph 36% 0 in
11:24 80.1 °F 50 °F 30 in Oeste 6.2 mph 13.8 mph 35.1% 0 in
11:29 80.2 °F 49.5 °F 30 in ONO 6.6 mph 16.1 mph 34.2% 0 in
11:34 80.4 °F 49.1 °F 30 in ONO 8.5 mph 20.7 mph 33.4% 0 in
11:39 80.4 °F 49.3 °F 30 in Oeste 9 mph 21 mph 33.8% 0 in
11:44 80.8 °F 48.9 °F 30 in Oeste 11.4 mph 17.5 mph 33.1% 0 in
11:49 81 °F 49.1 °F 30 in Oeste 10.9 mph 17 mph 32.9% 0 in
11:54 81.1 °F 49.1 °F 30 in Oeste 8.7 mph 14 mph 32.7% 0 in
11:59 81.3 °F 48.6 °F 30 in Oeste 8.7 mph 13.8 mph 32% 0 in
12:04 81.7 °F 48.9 °F 30 in Oeste 8.7 mph 14 mph 32% 0 in
12:09 82 °F 48.9 °F 30 in Oeste 8.3 mph 14 mph 31.7% 0 in
12:14 82.2 °F 48.6 °F 30 in Oeste 6.4 mph 16.8 mph 31% 0 in
12:19 82 °F 48.6 °F 30 in Oeste 6.7 mph 17.3 mph 31% 0 in
12:24 82 °F 48.6 °F 30 in Oeste 8.1 mph 16.3 mph 31.1% 0 in
12:29 82.4 °F 48.9 °F 30 in Oeste 8.1 mph 16.1 mph 31.2% 0 in
12:34 82.6 °F 48.7 °F 30 in Oeste 8.5 mph 18.4 mph 31% 0 in
12:39 82.6 °F 48.2 °F 30 in ONO 8.8 mph 19 mph 30.1% 0 in
12:44 82.8 °F 48.6 °F 30 in OSO 10 mph 19 mph 30.4% 0 in
12:49 83.3 °F 48.7 °F 30 in OSO 9.6 mph 16 mph 30.2% 0 in
12:54 83.5 °F 48.7 °F 30 in OSO 7.6 mph 14 mph 30% 0 in
12:59 83.8 °F 48.7 °F 30 in SO 7.3 mph 14 mph 29.6% 0 in
13:04 84 °F 48.4 °F 30 in SO 6.4 mph 12.7 mph 29% 0 in
13:09 84.4 °F 48.6 °F 29.9 in SO 6.6 mph 13 mph 29% 0 in
13:14 84.6 °F 48.6 °F 29.9 in SSO 7.4 mph 13 mph 28.9% 0 in
13:19 84.7 °F 48.7 °F 29.9 in OSO 7.3 mph 11.5 mph 28.7% 0 in
13:24 85.3 °F 48.7 °F 29.9 in OSO 6.9 mph 12 mph 28.2% 0 in
13:29 85.6 °F 48.6 °F 29.9 in Oeste 6.7 mph 12 mph 27.8% 0 in
13:34 85.8 °F 48.9 °F 29.9 in Oeste 5.9 mph 11 mph 27.9% 0 in
13:39 86.4 °F 48.4 °F 29.9 in OSO 5.8 mph 12.7 mph 27% 0 in
13:44 86.5 °F 48.2 °F 29.9 in ONO 5.2 mph 13 mph 26.6% 0 in
13:49 86.7 °F 47.8 °F 29.9 in ONO 5.6 mph 16.1 mph 26.1% 0 in
13:54 86.7 °F 47.7 °F 29.9 in ONO 7.6 mph 16.1 mph 26% 0 in
13:59 87.3 °F 47.8 °F 29.9 in ONO 7.6 mph 17.5 mph 25.7% 0 in
14:04 87.3 °F 47.5 °F 29.9 in ONO 7.6 mph 17 mph 25.3% 0 in
14:09 87.4 °F 47.8 °F 29.9 in ONO 7.7 mph 15 mph 25.5% 0 in
14:14 87.8 °F 48 °F 29.9 in ONO 8.1 mph 15 mph 25.4% 0 in
14:19 88 °F 47.7 °F 29.9 in Oeste 8 mph 15 mph 25% 0 in
14:24 88 °F 47.8 °F 29.9 in ONO 7.4 mph 15 mph 25% 0 in
14:29 88.3 °F 48 °F 29.9 in Oeste 7.6 mph 16.1 mph 25.1% 0 in
14:34 88.3 °F 48 °F 29.9 in ONO 8.5 mph 16 mph 25% 0 in
14:39 88.3 °F 48.2 °F 29.9 in NO 8.8 mph 18.5 mph 25.1% 0 in
14:44 88.5 °F 48.9 °F 29.9 in ONO 10.2 mph 19 mph 25.7% 0 in
14:49 88.5 °F 48.4 °F 29.9 in ONO 9.9 mph 16 mph 25.2% 0 in
14:54 88.7 °F 48.7 °F 29.9 in Oeste 8.7 mph 15 mph 25.3% 0 in
14:59 89.1 °F 48.7 °F 29.9 in Oeste 8.6 mph 13.8 mph 25% 0 in
15:04 89.2 °F 48.7 °F 29.9 in Oeste 8.1 mph 15.2 mph 25% 0 in
15:09 89.2 °F 48.9 °F 29.9 in ONO 8.1 mph 16.1 mph 25.1% 0 in
15:14 89.4 °F 51.1 °F 29.9 in NO 8.1 mph 18.4 mph 27.2% 0 in
15:19 88.7 °F 55.8 °F 29.9 in NNE 8.4 mph 18.4 mph 32.9% 0 in
15:24 87.6 °F 56.7 °F 29.9 in NNE 10.2 mph 19.7 mph 35% 0 in
15:29 86.9 °F 60.3 °F 29.9 in NNE 10.4 mph 20 mph 40.9% 0 in
15:34 86 °F 61.9 °F 29.9 in NE 11.8 mph 21.9 mph 44.7% 0 in
15:39 85.1 °F 62.8 °F 29.9 in NE 12 mph 22 mph 47.3% 0 in
15:44 84.4 °F 63.7 °F 29.9 in NE 13 mph 22 mph 50% 0 in
15:49 83.8 °F 63.7 °F 29.9 in NE 12.9 mph 22 mph 51% 0 in
15:54 83.1 °F 63.3 °F 29.9 in NE 12.5 mph 21.3 mph 51.4% 0 in
15:59 82.6 °F 63.7 °F 29.9 in NE 12.3 mph 21 mph 52.9% 0 in
16:04 82.2 °F 64 °F 29.9 in NE 11.4 mph 23 mph 54% 0 in
16:09 81.9 °F 64.2 °F 29.9 in NE 11.7 mph 23 mph 55.1% 0 in
16:14 81.5 °F 64.6 °F 29.9 in NE 13 mph 22 mph 56.6% 0 in
16:19 81.3 °F 65.1 °F 29.9 in NE 12.7 mph 22 mph 58% 0 in
16:24 81.1 °F 65.5 °F 29.9 in NE 11.4 mph 20.7 mph 58.8% 0 in
16:29 80.8 °F 65.5 °F 29.9 in NE 11.6 mph 21 mph 59.8% 0 in
16:34 80.2 °F 65.5 °F 29.9 in NE 12.3 mph 21.9 mph 60.6% 0 in
16:39 79.9 °F 65.7 °F 29.9 in NE 12.1 mph 22 mph 61.7% 0 in
16:44 79.7 °F 65.8 °F 29.9 in NE 11.2 mph 17 mph 62.7% 0 in
16:49 79.7 °F 65.8 °F 29.9 in NE 10.7 mph 16.3 mph 63% 0 in
16:54 79.5 °F 65.8 °F 29.9 in NE 8.5 mph 18.5 mph 63% 0 in
16:59 79.3 °F 65.7 °F 29.9 in NE 8.9 mph 19 mph 63.2% 0 in
17:04 79.2 °F 65.8 °F 29.9 in NE 10.7 mph 19 mph 64% 0 in
17:09 79.2 °F 65.8 °F 29.9 in NE 10.6 mph 18.4 mph 64% 0 in
17:14 79.2 °F 65.7 °F 29.9 in NE 10.2 mph 18.4 mph 63.4% 0 in
17:19 78.8 °F 65.5 °F 29.9 in NE 10.4 mph 19 mph 63.7% 0 in
17:24 78.4 °F 65.3 °F 29.9 in NE 11.2 mph 19 mph 64% 0 in
17:29 78.6 °F 65.3 °F 29.9 in NE 11.2 mph 17.3 mph 64% 0 in
17:34 78.3 °F 65.5 °F 29.9 in NE 11.2 mph 17 mph 65% 0 in
17:39 78.3 °F 65.7 °F 29.9 in NE 10.7 mph 16 mph 65.2% 0 in
17:44 78.3 °F 65.5 °F 29.9 in NE 8.1 mph 15 mph 65.1% 0 in
17:49 78.3 °F 65.5 °F 29.9 in ESE 8 mph 13.8 mph 64.9% 0 in
17:54 78.4 °F 65.3 °F 29.9 in ESE 7.4 mph 14 mph 64% 0 in
17:59 78.4 °F 65.1 °F 29.9 in Este 7.4 mph 13 mph 63.9% 0 in
18:04 78.3 °F 65.3 °F 30 in Este 7.4 mph 13.8 mph 64.4% 0 in
18:09 78.1 °F 65.3 °F 30 in Este 7.5 mph 14 mph 65% 0 in
18:14 77.7 °F 64.9 °F 30 in ESE 7.6 mph 14 mph 65% 0 in
18:19 77.5 °F 64.9 °F 30 in ESE 7.8 mph 15.9 mph 65.4% 0 in
18:24 77.2 °F 64.9 °F 30 in ESE 8.7 mph 16.1 mph 65.8% 0 in
18:29 77 °F 64.8 °F 30 in Este 8.7 mph 15.2 mph 66% 0 in
18:34 76.8 °F 64.6 °F 30 in Este 8.7 mph 15 mph 66% 0 in
18:39 76.8 °F 64.8 °F 30 in ESE 8.3 mph 12 mph 66.7% 0 in
18:44 76.6 °F 64.9 °F 30 in Este 6.4 mph 11 mph 67% 0 in
18:49 76.8 °F 64.9 °F 30 in ENE 6.3 mph 10.4 mph 67% 0 in
18:54 76.8 °F 64.9 °F 30 in ENE 5.4 mph 10 mph 67% 0 in
18:59 76.8 °F 64.6 °F 30 in Este 5.3 mph 10.2 mph 66.3% 0 in
19:04 76.6 °F 64.9 °F 30 in ENE 4.7 mph 10.4 mph 67% 0 in
19:09 76.6 °F 64.8 °F 30 in ENE 4.8 mph 10 mph 67% 0 in
19:14 76.5 °F 64.9 °F 30 in ENE 5.4 mph 9 mph 67.8% 0 in
19:19 76.5 °F 65.1 °F 30 in ENE 5.3 mph 9.7 mph 68% 0 in
19:24 76.3 °F 64.9 °F 30 in ENE 4.7 mph 10.7 mph 68% 0 in
19:29 75.9 °F 64.9 °F 30 in ENE 4.8 mph 11 mph 68.8% 0 in
19:34 75.7 °F 64.9 °F 30 in ENE 5.4 mph 9.2 mph 69% 0 in
19:39 75.6 °F 64.8 °F 30 in NE 5.3 mph 9.2 mph 69% 0 in
19:44 75.4 °F 64.6 °F 30 in ENE 5.2 mph 9.2 mph 69.4% 0 in
19:49 75 °F 64.6 °F 30 in ENE 5.1 mph 9 mph 70% 0 in
19:54 75 °F 64.6 °F 30 in NE 4.7 mph 8 mph 70% 0 in
19:59 74.8 °F 64.4 °F 30 in NE 4.8 mph 9.2 mph 70.1% 0 in
20:04 74.7 °F 64.6 °F 30 in NE 5.2 mph 12.3 mph 71% 0 in
20:09 74.5 °F 64.6 °F 30 in NE 5.3 mph 13 mph 71% 0 in
20:14 74.1 °F 64.6 °F 30 in NE 6.2 mph 11 mph 71.9% 0 in
20:19 73.9 °F 64.4 °F 30 in NE 6.3 mph 13.8 mph 72% 0 in
20:24 73.8 °F 64.2 °F 30 in NE 6.9 mph 14 mph 72% 0 in
20:29 73.8 °F 64.2 °F 30 in NE 7.1 mph 14 mph 72.4% 0 in
20:34 73.6 °F 64.2 °F 30 in NE 8.1 mph 13 mph 72.3% 0 in
20:39 73.6 °F 64.4 °F 30 in NE 8.1 mph 12 mph 73% 0 in
20:44 73.6 °F 64.4 °F 30 in NE 8.1 mph 13.7 mph 73% 0 in
20:49 73.4 °F 64.2 °F 30 in NE 8.1 mph 14 mph 73% 0 in
20:54 73.4 °F 64.2 °F 30 in NE 8.1 mph 14 mph 73% 0 in
20:59 73.4 °F 64.2 °F 30 in NE 7.7 mph 12 mph 73% 0 in
21:04 73.4 °F 64.2 °F 30 in NE 5.9 mph 10.4 mph 73% 0 in
21:09 73.2 °F 64 °F 30 in NE 5.9 mph 11.5 mph 73% 0 in
21:14 73.2 °F 64 °F 30 in NE 5.9 mph 12 mph 73% 0 in
21:19 73 °F 64 °F 30 in NE 5.8 mph 10.4 mph 73.4% 0 in
21:24 73 °F 64.2 °F 30 in NE 5.4 mph 10 mph 74% 0 in
21:29 73 °F 64.2 °F 30 in NE 5.5 mph 10.7 mph 74% 0 in
21:34 73 °F 64.2 °F 30 in NE 6.2 mph 11 mph 74% 0 in
21:39 73 °F 64.2 °F 30 in NE 6.2 mph 9.7 mph 74% 0 in
21:44 73 °F 64.2 °F 30 in NE 6.2 mph 10 mph 74% 0 in
21:49 73 °F 64.2 °F 30 in NE 6 mph 8.1 mph 74% 0 in
21:54 73 °F 64.2 °F 30 in NE 5.2 mph 9.2 mph 74% 0 in
21:59 73 °F 64.2 °F 30 in NE 5.3 mph 9.2 mph 74% 0 in
22:04 73 °F 64.2 °F 30 in NNE 5.9 mph 9 mph 74% 0 in
22:09 72.9 °F 64.2 °F 30 in NNE 5.6 mph 8.1 mph 74% 0 in
22:14 72.9 °F 64 °F 30 in NE 4.3 mph 8.1 mph 74% 0 in
22:19 72.9 °F 64 °F 30 in NE 4.5 mph 9.2 mph 74% 0 in
22:24 72.9 °F 64 °F 30 in NE 5.2 mph 9 mph 74% 0 in
22:29 72.9 °F 64 °F 30 in NE 5 mph 8.1 mph 74% 0 in
22:34 72.7 °F 63.9 °F 30 in NE 4.3 mph 9.2 mph 74% 0 in
22:39 72.7 °F 63.9 °F 30 in NE 4.5 mph 9.2 mph 74% 0 in
22:44 72.7 °F 63.9 °F 30 in NE 5.4 mph 9 mph 74% 0 in
22:49 72.7 °F 63.9 °F 30 in NE 5.2 mph 7.6 mph 74% 0 in
22:54 72.5 °F 63.7 °F 30 in NE 4.3 mph 8.1 mph 74% 0 in
22:59 72.3 °F 63.9 °F 30 in NE 4.4 mph 8 mph 74.7% 0 in
23:04 72.3 °F 63.9 °F 30 in NE 4.7 mph 8.5 mph 75% 0 in
23:09 72.1 °F 63.9 °F 30 in NE 4.8 mph 9 mph 75% 0 in
23:14 72.1 °F 63.9 °F 30 in NE 5.2 mph 8.5 mph 75% 0 in
23:19 72 °F 63.7 °F 30 in NE 5.2 mph 9.7 mph 75% 0 in
23:24 72 °F 63.7 °F 30 in NE 5.4 mph 10 mph 75.2% 0 in
23:29 71.8 °F 63.9 °F 30 in NE 5.3 mph 7.4 mph 75.9% 0 in
23:34 71.8 °F 63.7 °F 30 in NE 4.7 mph 7 mph 76% 0 in
23:39 71.4 °F 63.5 °F 30 in NE 4.7 mph 7.4 mph 76% 0 in
23:44 71.4 °F 63.5 °F 30 in NE 4.7 mph 9.2 mph 76% 0 in
23:49 71.2 °F 63.5 °F 30 in NE 4.8 mph 10.4 mph 76.5% 0 in
23:54 71.1 °F 63.5 °F 30 in NE 5.4 mph 10.4 mph 77% 0 in
23:59 71.1 °F 63.5 °F 30 in NE 5.3 mph 10 mph 77% 0 in
Murcia-Puente Tocinos, España
Compliments of Weather Underground - 3 mb

La estación de MeteoMurcia.com, publica sus datos en los siguientes proyectos:

Weather Underground PWS IMURCIAP2 Meteoclimatic www.awekas.at

W3Counter
Web Analytics